Time;durP1;ratioP1;P1;durP2;ratioP2;P2;SDS_P1;SDS_P2;PMS_P1;PMS_P2;Temp;Humidity;BMP_temperature;BMP_pressure;BME280_temperature;BME280_humidity;BME280_pressure;Samples;Min_cycle;Max_cycle;Signal;HPM_P1;HPM_P2
2022/06/16 00:01:02;;;;;;;9.50;4.17;;;18.90;92.70;;;;;;5056040;28;20421;-73
2022/06/16 00:03:28;;;;;;;6.93;5.13;;;19.00;92.30;;;;;;5056024;28;20179;-73
2022/06/16 00:05:54;;;;;;;4.90;3.17;;;18.90;91.90;;;;;;5056072;28;20175;-73
2022/06/16 00:08:19;;;;;;;8.50;4.73;;;19.00;92.10;;;;;;5055942;28;20426;-73
2022/06/16 00:13:34;;;;;;;7.97;4.10;;;19.00;91.10;;;;;;5056151;28;20182;-73
2022/06/16 00:16:00;;;;;;;5.90;4.40;;;18.90;91.00;;;;;;5055771;28;20931;-73
2022/06/16 00:18:26;;;;;;;6.30;3.60;;;18.80;91.30;;;;;;5055705;28;20417;-73
2022/06/16 00:20:52;;;;;;;9.30;4.50;;;18.90;92.20;;;;;;5055754;28;20268;-73
2022/06/16 00:23:18;;;;;;;6.53;4.03;;;18.90;91.80;;;;;;5055637;28;20460;-73
2022/06/16 00:25:44;;;;;;;11.30;4.90;;;18.80;91.80;;;;;;5055675;28;20221;-73
2022/06/16 00:28:09;;;;;;;8.20;4.13;;;18.50;92.80;;;;;;5055502;28;20507;-72
2022/06/16 00:30:35;;;;;;;6.37;4.30;;;18.50;92.70;;;;;;5055493;28;20186;-74
2022/06/16 00:33:00;;;;;;;8.40;4.17;;;18.50;92.60;;;;;;5055174;28;20576;-74
2022/06/16 00:35:26;;;;;;;5.83;3.87;;;18.50;92.60;;;;;;5054136;28;20205;-74
2022/06/16 00:37:51;;;;;;;7.93;5.13;;;18.60;92.60;;;;;;5054286;28;20183;-74
2022/06/16 00:40:17;;;;;;;4.57;3.40;;;18.60;91.90;;;;;;5055224;28;20221;-74
2022/06/16 00:42:44;;;;;;;6.00;4.00;;;18.60;91.70;;;;;;5055271;28;20185;-74
2022/06/16 00:45:47;;;;;;;6.87;4.23;;;18.60;91.40;;;;;;5055270;28;20183;-74
2022/06/16 00:48:27;;;;;;;7.20;3.63;;;18.50;92.00;;;;;;5055164;28;20429;-74
2022/06/16 00:50:58;;;;;;;6.03;3.53;;;18.50;92.20;;;;;;5055337;28;20766;-74
2022/06/16 00:53:26;;;;;;;5.70;3.60;;;18.50;91.50;;;;;;5055172;28;20450;-75
2022/06/16 00:55:52;;;;;;;6.57;4.00;;;18.40;91.50;;;;;;5055101;28;20430;-74
2022/06/16 00:58:21;;;;;;;5.73;3.70;;;18.50;91.20;;;;;;5054709;28;20794;-73
2022/06/16 01:00:46;;;;;;;5.47;3.30;;;18.40;90.90;;;;;;5055004;28;20656;-74
2022/06/16 01:03:13;;;;;;;8.93;3.87;;;18.40;91.30;;;;;;5054973;28;20418;-74
2022/06/16 01:05:39;;;;;;;6.43;3.87;;;18.40;91.50;;;;;;5054932;28;20266;-74
2022/06/16 01:08:06;;;;;;;4.87;3.33;;;18.30;90.90;;;;;;5054820;28;20425;-75
2022/06/16 01:10:42;;;;;;;4.60;3.90;;;18.40;91.00;;;;;;5054816;28;20467;-74
2022/06/16 01:13:43;;;;;;;7.43;4.20;;;18.40;91.20;;;;;;5054776;28;20429;-73
2022/06/16 01:16:29;;;;;;;7.63;3.33;;;18.30;90.60;;;;;;5054682;28;20511;-73
2022/06/16 01:19:19;;;;;;;6.07;3.33;;;18.40;90.70;;;;;;5054517;28;20461;-74
2022/06/16 01:22:01;;;;;;;7.43;3.93;;;18.40;90.60;;;;;;5053354;28;20445;-74
2022/06/16 01:24:35;;;;;;;7.23;5.03;;;18.40;90.10;;;;;;5054498;28;20513;-73
2022/06/16 04:30:22;;;;;;;6.13;4.10;;;17.60;98.80;;;;;;5972253;23;20615;-76
2022/06/16 04:32:47;;;;;;;5.73;4.17;;;17.60;98.30;;;;;;4900220;29;20543;-75
2022/06/16 04:35:13;;;;;;;6.47;4.47;;;17.60;98.00;;;;;;4900318;29;20265;-77
2022/06/16 04:37:39;;;;;;;9.57;3.97;;;17.60;98.00;;;;;;4900486;29;20184;-77
2022/06/16 04:40:05;;;;;;;6.40;4.47;;;17.60;97.30;;;;;;4900497;29;20227;-78
2022/06/16 04:42:30;;;;;;;8.23;4.63;;;17.70;98.50;;;;;;4900612;29;20185;-78
2022/06/16 04:44:56;;;;;;;4.30;3.90;;;17.70;98.90;;;;;;4900317;29;20951;-74
2022/06/16 04:47:21;;;;;;;4.53;3.67;;;17.60;97.10;;;;;;4900169;29;20506;-75
2022/06/16 04:49:49;;;;;;;6.87;4.00;;;17.70;98.50;;;;;;4883307;29;20188;-75
2022/06/16 04:52:17;;;;;;;7.80;3.50;;;17.70;99.00;;;;;;4900162;29;20179;-75
2022/06/16 04:54:46;;;;;;;8.67;3.60;;;17.70;97.40;;;;;;4900158;29;20788;-75
2022/06/16 04:57:12;;;;;;;10.13;3.60;;;17.70;97.90;;;;;;4900040;29;20429;-74
2022/06/16 04:59:38;;;;;;;5.93;3.80;;;17.70;97.40;;;;;;4899885;29;20484;-74
2022/06/16 05:02:04;;;;;;;6.70;3.57;;;17.70;97.60;;;;;;4899937;29;20427;-75
2022/06/16 05:04:30;;;;;;;7.00;4.07;;;17.80;97.80;;;;;;4899945;29;20188;-76
2022/06/16 05:06:56;;;;;;;6.03;5.27;;;17.80;98.00;;;;;;4899862;29;20433;-76
2022/06/16 05:09:23;;;;;;;5.70;4.17;;;17.80;97.80;;;;;;4899793;29;20492;-76
2022/06/16 05:11:49;;;;;;;8.20;4.07;;;17.90;97.80;;;;;;4899778;29;20585;-76
2022/06/16 05:14:14;;;;;;;7.20;3.70;;;17.90;98.40;;;;;;4899662;29;20459;-76
2022/06/16 05:16:40;;;;;;;8.07;4.40;;;18.00;98.10;;;;;;4899662;29;20424;-76
2022/06/16 05:19:05;;;;;;;5.43;3.53;;;18.00;98.90;;;;;;4899509;29;20224;-76
2022/06/16 05:21:31;;;;;;;4.40;4.00;;;18.10;99.10;;;;;;4899559;29;20184;-75
2022/06/16 05:23:56;;;;;;;5.43;4.13;;;18.10;99.40;;;;;;4899642;29;20260;-75
2022/06/16 05:26:22;;;;;;;4.40;4.00;;;17.90;99.00;;;;;;4899458;29;20551;-77
2022/06/16 05:28:47;;;;;;;4.70;3.70;;;18.00;97.20;;;;;;4899453;29;20554;-77
2022/06/16 05:31:13;;;;;;;8.20;4.20;;;18.00;97.60;;;;;;4899258;29;20660;-77
2022/06/16 05:33:38;;;;;;;8.50;4.00;;;18.10;96.70;;;;;;4899188;29;20185;-77
2022/06/16 05:36:11;;;;;;;4.43;4.03;;;18.20;96.90;;;;;;4899285;29;20176;-77
2022/06/16 05:38:37;;;;;;;4.43;3.87;;;18.20;96.90;;;;;;4899253;29;20180;-77
2022/06/16 05:41:10;;;;;;;6.47;4.00;;;18.10;99.40;;;;;;4899206;29;20444;-77
2022/06/16 05:43:36;;;;;;;7.60;4.33;;;18.20;98.50;;;;;;4899125;29;21000;-77
2022/06/16 05:46:04;;;;;;;5.87;4.00;;;18.30;98.70;;;;;;4899151;29;20502;-76
2022/06/16 05:48:30;;;;;;;8.20;5.00;;;18.30;98.50;;;;;;4899021;29;20940;-76
2022/06/16 05:51:02;;;;;;;8.67;5.00;;;18.30;98.00;;;;;;4898960;29;20484;-76
2022/06/16 05:53:28;;;;;;;7.30;4.10;;;18.30;97.80;;;;;;4899000;29;20176;-76
2022/06/16 05:55:53;;;;;;;9.57;4.60;;;18.20;98.10;;;;;;4882123;29;20440;-76
2022/06/16 05:58:19;;;;;;;5.03;3.80;;;18.30;98.30;;;;;;4898870;29;20548;-76
2022/06/16 06:00:45;;;;;;;4.13;3.77;;;18.40;98.30;;;;;;4898817;29;20267;-76
2022/06/16 06:03:10;;;;;;;6.57;4.00;;;18.50;97.10;;;;;;4898683;29;20188;-76
2022/06/16 06:05:36;;;;;;;9.03;3.90;;;18.50;97.50;;;;;;4898759;29;20236;-76
2022/06/16 06:16:37;;;;;;;10.43;5.10;;;18.80;96.70;;;;;;4898865;29;20439;-75
2022/06/16 06:19:23;;;;;;;6.18;3.60;;;18.80;96.90;;;;;;4898793;29;20451;-77
2022/06/16 06:21:59;;;;;;;4.67;3.93;;;18.90;97.00;;;;;;4907108;29;20193;-72
2022/06/16 06:24:27;;;;;;;6.70;3.70;;;18.80;96.90;;;;;;4907158;29;20420;-74
2022/06/16 06:26:53;;;;;;;5.80;4.17;;;18.80;96.90;;;;;;4905587;29;20511;-74
2022/06/16 06:29:19;;;;;;;5.23;4.23;;;18.70;96.70;;;;;;4906432;29;20935;-74
2022/06/16 06:31:44;;;;;;;6.90;4.57;;;18.70;97.30;;;;;;4906900;29;20477;-74
2022/06/16 06:34:10;;;;;;;6.40;3.73;;;18.80;97.90;;;;;;4888680;29;20169;-74
2022/06/16 06:36:35;;;;;;;9.53;5.63;;;18.80;96.70;;;;;;4906626;29;20601;-75
2022/06/16 06:39:01;;;;;;;6.07;4.60;;;18.30;97.50;;;;;;4898185;29;20260;-70
2022/06/16 06:41:27;;;;;;;4.80;3.60;;;18.20;98.80;;;;;;4898181;29;20271;-70
2022/06/16 06:43:52;;;;;;;7.77;4.60;;;18.40;98.80;;;;;;4898304;29;20540;-70
2022/06/16 06:46:18;;;;;;;10.37;4.40;;;18.50;99.10;;;;;;4881395;29;20668;-69
2022/06/16 06:48:44;;;;;;;8.63;3.83;;;18.40;98.40;;;;;;4898191;29;20187;-73
2022/06/16 06:51:09;;;;;;;5.33;3.40;;;18.40;99.00;;;;;;4897927;29;20279;-74
2022/06/16 06:53:35;;;;;;;8.07;4.10;;;18.60;99.80;;;;;;4897297;29;20511;-72
2022/06/16 06:56:01;;;;;;;6.00;4.10;;;18.70;99.10;;;;;;4897237;29;20220;-73
2022/06/16 06:58:27;;;;;;;8.67;2.97;;;18.60;99.00;;;;;;4880176;29;20188;-75
2022/06/16 07:00:56;;;;;;;6.17;3.23;;;18.50;98.90;;;;;;4896968;29;20940;-77
2022/06/16 07:03:21;;;;;;;8.23;2.87;;;18.70;99.70;;;;;;4897041;29;20216;-75
2022/06/16 07:05:48;;;;;;;6.73;3.00;;;18.70;98.90;;;;;;4897041;29;20479;-70
2022/06/16 07:08:13;;;;;;;4.80;3.17;;;18.70;97.80;;;;;;4897094;29;20185;-71
2022/06/16 07:10:40;;;;;;;5.37;4.03;;;18.90;98.00;;;;;;4896885;29;20503;-73
2022/06/16 07:13:07;;;;;;;5.67;3.30;;;18.80;97.60;;;;;;4897033;29;20694;-71
2022/06/16 07:15:34;;;;;;;4.80;2.17;;;19.00;97.50;;;;;;4896927;29;20966;-71
2022/06/16 07:17:59;;;;;;;4.70;2.77;;;19.10;98.40;;;;;;4896960;29;20447;-71
2022/06/16 07:20:25;;;;;;;8.80;2.90;;;19.20;97.90;;;;;;4896682;29;20471;-72
2022/06/16 07:22:50;;;;;;;5.83;2.80;;;19.30;98.60;;;;;;4896837;29;20181;-71
2022/06/16 07:25:16;;;;;;;7.53;2.53;;;19.40;98.50;;;;;;4896553;29;20604;-71
2022/06/16 07:27:42;;;;;;;3.73;2.73;;;19.60;98.10;;;;;;4896977;29;20589;-71
2022/06/16 07:30:14;;;;;;;3.10;2.90;;;19.70;97.80;;;;;;4896862;29;20524;-72
2022/06/16 07:32:44;;;;;;;6.80;2.93;;;19.50;96.90;;;;;;4896681;29;21047;-72
2022/06/16 07:35:12;;;;;;;3.57;2.63;;;19.60;97.30;;;;;;4896736;29;20436;-72
2022/06/16 07:37:37;;;;;;;11.43;3.50;;;19.40;96.40;;;;;;4896741;29;21007;-71
2022/06/16 07:40:04;;;;;;;4.63;3.30;;;19.20;96.80;;;;;;4896633;29;20624;-72
2022/06/16 07:42:30;;;;;;;4.67;3.03;;;19.40;97.50;;;;;;4899183;29;20180;-72
2022/06/16 07:44:55;;;;;;;4.23;3.00;;;19.40;97.50;;;;;;4883413;29;20449;-72
2022/06/16 07:47:21;;;;;;;3.37;3.07;;;19.60;98.20;;;;;;4900317;29;20270;-72
2022/06/16 07:49:49;;;;;;;4.00;2.27;;;19.50;97.60;;;;;;4900190;29;20299;-72
2022/06/16 07:52:15;;;;;;;3.93;2.50;;;19.40;97.10;;;;;;4900092;29;20185;-72
2022/06/16 07:54:41;;;;;;;4.43;3.20;;;19.40;96.90;;;;;;4900335;29;20425;-72
2022/06/16 07:57:07;;;;;;;7.23;3.40;;;19.50;96.40;;;;;;4900235;29;20441;-73
2022/06/16 07:59:32;;;;;;;6.33;2.90;;;19.60;97.40;;;;;;4899883;29;20224;-73
2022/06/16 08:01:58;;;;;;;3.00;2.50;;;19.70;98.10;;;;;;4899958;29;20177;-72
2022/06/16 08:04:24;;;;;;;3.87;2.80;;;19.90;99.10;;;;;;4899937;29;20183;-74
2022/06/16 08:06:50;;;;;;;4.53;2.07;;;20.10;97.10;;;;;;4899891;29;20187;-73
2022/06/16 08:09:16;;;;;;;3.40;2.10;;;20.20;96.00;;;;;;4899773;29;20437;-73
2022/06/16 08:14:25;;;;;;;2.90;2.40;;;19.80;95.00;;;;;;4899799;29;20239;-72
2022/06/16 08:16:51;;;;;;;4.60;2.53;;;19.90;95.50;;;;;;4899604;29;20442;-73
2022/06/16 08:19:17;;;;;;;3.20;2.27;;;20.10;94.50;;;;;;4899777;29;20236;-72
2022/06/16 08:21:42;;;;;;;4.53;3.10;;;20.20;94.50;;;;;;4906709;29;20440;-72
2022/06/16 08:24:08;;;;;;;3.20;2.30;;;20.00;92.80;;;;;;4899484;29;20636;-74
2022/06/16 08:26:36;;;;;;;3.57;2.17;;;20.10;92.90;;;;;;4903875;29;20522;-74
2022/06/16 08:29:02;;;;;;;3.33;1.80;;;20.30;94.00;;;;;;4899382;29;20445;-72
2022/06/16 08:31:27;;;;;;;2.50;2.20;;;20.50;92.40;;;;;;4899104;29;20469;-74
2022/06/16 08:33:53;;;;;;;6.93;1.97;;;20.60;90.80;;;;;;4899388;29;20492;-73
2022/06/16 08:36:20;;;;;;;2.53;2.10;;;20.60;90.10;;;;;;4905279;29;20241;-76
2022/06/16 08:38:46;;;;;;;2.83;1.90;;;20.50;88.50;;;;;;4905620;29;20598;-76
2022/06/16 08:41:22;;;;;;;5.33;2.30;;;20.50;88.30;;;;;;4904445;29;20489;-73
2022/06/16 08:44:03;;;;;;;3.17;2.23;;;20.60;87.20;;;;;;4902340;29;20428;-73
2022/06/16 08:46:35;;;;;;;2.90;1.60;;;20.60;86.70;;;;;;4915188;29;20440;-75
2022/06/16 08:49:17;;;;;;;5.10;2.43;;;20.50;86.80;;;;;;4906352;29;20455;-76
2022/06/16 08:52:04;;;;;;;3.77;2.00;;;20.60;88.10;;;;;;4898958;29;20437;-73
2022/06/16 08:54:40;;;;;;;3.60;3.30;;;20.70;90.90;;;;;;4898829;29;20456;-71
2022/06/16 08:57:11;;;;;;;3.00;1.53;;;20.80;84.50;;;;;;4898899;29;20948;-77
2022/06/16 08:59:43;;;;;;;1.93;1.70;;;21.00;80.20;;;;;;4898620;29;20480;-75
2022/06/16 09:02:34;;;;;;;2.43;2.23;;;20.90;81.80;;;;;;4899058;29;20428;-73
2022/06/16 09:05:30;;;;;;;3.40;1.87;;;20.80;80.10;;;;;;4898586;29;20810;-75
2022/06/16 09:08:18;;;;;;;5.90;2.40;;;21.00;79.80;;;;;;4899022;29;20548;-82
2022/06/16 09:10:54;;;;;;;3.30;2.00;;;20.80;79.40;;;;;;4898808;29;20416;-77
2022/06/16 09:13:19;;;;;;;6.90;2.83;;;20.90;80.50;;;;;;4898265;29;20487;-78
2022/06/16 09:16:06;;;;;;;3.70;2.00;;;20.90;78.60;;;;;;4898907;29;20467;-82
2022/06/16 09:18:56;;;;;;;4.83;1.67;;;21.10;79.40;;;;;;4898754;29;20253;-82
2022/06/16 09:21:35;;;;;;;2.37;1.60;;;21.40;81.00;;;;;;4898600;29;20528;-81
2022/06/16 09:24:20;;;;;;;2.70;1.80;;;21.60;78.50;;;;;;4908578;29;20515;-79
2022/06/16 09:26:55;;;;;;;4.60;2.23;;;21.30;76.80;;;;;;4917293;29;20440;-81
2022/06/16 09:29:42;;;;;;;4.37;2.00;;;21.50;74.90;;;;;;4916502;29;20571;-78
2022/06/16 09:32:10;;;;;;;4.37;1.73;;;21.40;76.10;;;;;;4916269;29;20998;-78
2022/06/16 09:34:45;;;;;;;1.93;1.73;;;21.40;79.90;;;;;;4917192;29;20443;-78
2022/06/16 09:37:21;;;;;;;2.53;1.60;;;21.50;77.00;;;;;;4917276;29;20415;-86
2022/06/16 09:40:13;;;;;;;1.70;1.60;;;21.50;75.60;;;;;;4917082;29;20467;-68
2022/06/16 09:43:04;;;;;;;2.43;1.40;;;21.40;75.00;;;;;;4917092;29;20424;-74
2022/06/16 09:45:44;;;;;;;2.23;1.70;;;21.40;73.50;;;;;;4902958;29;20440;-73
2022/06/16 09:48:20;;;;;;;4.07;1.70;;;21.50;69.80;;;;;;4897204;29;20440;-76
2022/06/16 09:50:58;;;;;;;3.87;1.63;;;21.50;68.90;;;;;;4898102;29;20230;-76
2022/06/16 09:53:29;;;;;;;6.90;1.60;;;21.60;72.30;;;;;;4897979;29;20420;-76
2022/06/16 09:56:01;;;;;;;5.60;1.70;;;21.50;70.10;;;;;;4898087;29;20439;-76
2022/06/16 09:58:57;;;;;;;2.20;2.00;;;21.40;70.20;;;;;;4897970;29;20488;-75
2022/06/16 10:01:26;;;;;;;2.60;2.40;;;21.40;71.20;;;;;;4897922;29;20443;-76
2022/06/16 10:04:05;;;;;;;2.30;1.57;;;21.40;71.30;;;;;;4897419;29;20420;-76
2022/06/16 10:06:39;;;;;;;1.90;1.80;;;21.60;73.70;;;;;;4900712;29;20495;-76
2022/06/16 10:09:15;;;;;;;1.93;1.47;;;21.90;72.10;;;;;;4904799;29;20430;-75
2022/06/16 10:11:44;;;;;;;4.40;1.80;;;22.10;69.70;;;;;;4903490;29;20522;-75
2022/06/16 10:14:27;;;;;;;4.30;2.10;;;22.00;72.30;;;;;;4905327;29;20822;-78
2022/06/16 10:16:56;;;;;;;3.87;1.40;;;21.90;76.00;;;;;;4897673;29;20532;-75
2022/06/16 10:19:26;;;;;;;3.80;1.70;;;22.00;75.10;;;;;;4897504;29;20480;-75
2022/06/16 10:21:51;;;;;;;3.20;1.50;;;22.00;70.20;;;;;;4897569;29;20429;-75
2022/06/16 10:24:23;;;;;;;3.00;1.40;;;22.10;73.70;;;;;;4897209;29;21167;-75
2022/06/16 10:26:48;;;;;;;1.50;1.40;;;22.20;72.70;;;;;;4897689;29;20607;-74
2022/06/16 10:29:22;;;;;;;3.47;1.90;;;22.30;73.20;;;;;;4897431;29;20512;-75
2022/06/16 10:31:48;;;;;;;2.70;1.37;;;22.30;72.80;;;;;;4897340;29;20232;-75
2022/06/16 10:34:31;;;;;;;2.00;1.83;;;22.40;70.10;;;;;;4897543;29;21004;-75
2022/06/16 10:37:10;;;;;;;3.57;1.50;;;22.60;70.10;;;;;;4897259;29;20555;-75
2022/06/16 10:39:43;;;;;;;4.10;1.30;;;22.70;73.00;;;;;;4897322;29;20480;-75
2022/06/16 10:42:20;;;;;;;7.33;2.00;;;22.80;74.20;;;;;;4897340;29;20421;-75
2022/06/16 10:44:49;;;;;;;7.23;1.90;;;22.90;69.50;;;;;;4896954;29;20460;-74
2022/06/16 10:47:32;;;;;;;2.13;1.53;;;23.00;78.30;;;;;;4903560;29;20435;-74
2022/06/16 10:49:57;;;;;;;3.78;1.90;;;23.00;70.70;;;;;;4897298;29;20480;-74
2022/06/16 10:52:31;;;;;;;2.10;1.90;;;23.00;70.50;;;;;;4897768;29;20173;-76
2022/06/16 10:55:08;;;;;;;2.63;1.57;;;22.80;69.00;;;;;;4897579;29;20215;-74
2022/06/16 10:57:41;;;;;;;2.90;2.20;;;22.90;74.80;;;;;;4898267;29;20514;-76
2022/06/16 11:00:21;;;;;;;3.00;2.33;;;22.90;72.20;;;;;;4897807;29;21006;-77
2022/06/16 11:03:05;;;;;;;1.87;1.73;;;23.00;70.70;;;;;;4897999;29;20428;-77
2022/06/16 11:05:34;;;;;;;4.20;2.47;;;23.00;69.60;;;;;;4897906;29;20436;-77
2022/06/16 11:08:10;;;;;;;4.43;1.67;;;22.90;67.00;;;;;;4897884;29;20484;-77
2022/06/16 11:10:40;;;;;;;2.70;1.97;;;23.00;70.00;;;;;;4898051;29;20492;-76
2022/06/16 11:13:12;;;;;;;3.60;1.87;;;22.80;67.80;;;;;;4897879;29;20459;-79
2022/06/16 11:15:41;;;;;;;2.53;2.07;;;23.10;67.70;;;;;;4899428;29;20492;-77
2022/06/16 11:18:13;;;;;;;2.00;1.77;;;23.30;69.00;;;;;;4901416;29;20437;-76
2022/06/16 11:20:41;;;;;;;2.37;1.50;;;23.30;71.50;;;;;;4901683;29;20480;-81
2022/06/16 11:23:17;;;;;;;1.70;1.60;;;23.30;68.90;;;;;;4904240;29;20436;-77
2022/06/16 11:25:43;;;;;;;5.07;2.00;;;23.40;72.10;;;;;;4909083;29;20995;-79
2022/06/16 11:28:12;;;;;;;2.10;1.90;;;23.50;69.80;;;;;;4908962;29;20550;-79
2022/06/16 11:30:56;;;;;;;2.17;1.63;;;23.70;79.00;;;;;;4907014;29;20575;-76
2022/06/16 11:36:41;;;;;;;4.67;2.10;;;23.80;69.90;;;;;;4904144;29;20471;-75
2022/06/16 11:39:07;;;;;;;3.00;1.83;;;23.90;71.20;;;;;;4901785;29;20539;-74
2022/06/16 11:41:32;;;;;;;4.30;2.53;;;23.80;68.40;;;;;;4903722;29;20571;-74
2022/06/16 11:44:13;;;;;;;2.23;1.90;;;24.00;70.30;;;;;;4887274;29;20528;-74
2022/06/16 11:46:47;;;;;;;7.87;2.40;;;24.00;74.90;;;;;;4901576;29;20173;-78
2022/06/16 11:49:29;;;;;;;1.80;1.53;;;24.00;73.80;;;;;;4907091;29;20435;-74
2022/06/16 11:51:57;;;;;;;2.20;2.00;;;24.10;72.80;;;;;;4910816;29;20431;-79
2022/06/16 11:54:50;;;;;;;2.93;1.90;;;23.90;67.30;;;;;;4909827;29;20436;-74
2022/06/16 11:57:19;;;;;;;3.80;2.13;;;24.00;68.40;;;;;;4910615;29;20459;-74
2022/06/16 12:00:06;;;;;;;6.30;2.33;;;23.90;70.30;;;;;;4918106;29;20510;-80
2022/06/16 12:02:49;;;;;;;6.20;2.37;;;23.90;70.10;;;;;;4911034;29;20440;-81
2022/06/16 12:05:47;;;;;;;2.00;1.80;;;24.10;72.00;;;;;;4892240;29;21017;-78
2022/06/16 12:08:25;;;;;;;4.30;2.53;;;24.10;69.70;;;;;;4865769;29;20961;-78
2022/06/16 12:11:13;;;;;;;2.93;2.50;;;24.40;68.30;;;;;;4896034;29;20436;-75
2022/06/16 12:14:24;;;;;;;2.23;1.93;;;24.50;69.70;;;;;;4884104;29;20429;-80
2022/06/16 12:17:10;;;;;;;6.03;3.00;;;24.60;71.00;;;;;;4880080;29;20445;-79
2022/06/16 12:19:56;;;;;;;2.67;2.00;;;24.60;69.40;;;;;;4880563;29;20489;-79
2022/06/16 12:22:34;;;;;;;8.03;2.77;;;24.70;67.10;;;;;;4881036;29;20519;-79
2022/06/16 12:25:14;;;;;;;4.60;2.30;;;24.50;66.90;;;;;;4881160;29;20480;-79
2022/06/16 12:27:52;;;;;;;2.70;1.70;;;24.60;69.50;;;;;;4864896;29;20788;-81
2022/06/16 12:30:26;;;;;;;3.77;2.37;;;24.40;65.40;;;;;;4881279;29;20523;-80
2022/06/16 12:33:24;;;;;;;2.47;1.90;;;24.30;67.50;;;;;;4881909;29;20528;-79
2022/06/16 12:35:55;;;;;;;3.83;2.27;;;24.50;67.60;;;;;;4881737;29;20430;-79
2022/06/16 12:38:30;;;;;;;5.23;2.50;;;24.50;66.50;;;;;;4881668;29;20425;-79
2022/06/16 12:41:03;;;;;;;2.60;2.40;;;24.20;64.20;;;;;;4881861;29;20477;-78
2022/06/16 12:43:42;;;;;;;2.70;2.20;;;24.10;64.50;;;;;;4881424;29;20421;-79
2022/06/16 12:46:14;;;;;;;2.57;2.37;;;24.40;71.60;;;;;;4881487;29;20437;-79
2022/06/16 12:49:18;;;;;;;3.70;2.40;;;24.60;67.60;;;;;;4881917;29;20785;-78
2022/06/16 12:51:51;;;;;;;3.47;2.80;;;25.00;70.30;;;;;;4873637;29;20528;-78
2022/06/16 12:54:24;;;;;;;4.20;2.77;;;25.00;64.60;;;;;;4882469;29;20418;-79
2022/06/16 12:56:59;;;;;;;5.93;2.73;;;25.30;63.20;;;;;;4881584;29;20429;-79
2022/06/16 12:59:38;;;;;;;4.50;2.20;;;25.20;66.10;;;;;;4881265;29;20473;-79
2022/06/16 13:02:07;;;;;;;7.00;2.77;;;25.30;68.30;;;;;;4881445;29;20429;-79
2022/06/16 13:04:34;;;;;;;5.93;2.20;;;25.30;65.70;;;;;;4881637;29;21024;-79
2022/06/16 13:07:10;;;;;;;2.97;2.63;;;25.10;64.80;;;;;;4881147;29;20805;-79
2022/06/16 13:09:36;;;;;;;3.00;2.30;;;25.30;67.30;;;;;;4881323;29;20430;-79
2022/06/16 13:12:12;;;;;;;2.63;2.43;;;25.40;69.70;;;;;;4881072;29;20426;-79
2022/06/16 13:14:47;;;;;;;3.93;2.57;;;25.30;67.70;;;;;;4881190;29;20547;-79
2022/06/16 13:17:13;;;;;;;5.07;2.20;;;25.40;67.90;;;;;;4881031;29;20416;-79
2022/06/16 13:19:47;;;;;;;5.50;2.07;;;25.60;68.30;;;;;;4880889;29;21012;-79
2022/06/16 13:22:41;;;;;;;3.23;2.20;;;25.80;65.90;;;;;;4880527;29;20514;-79
2022/06/16 13:25:13;;;;;;;2.33;2.00;;;25.90;61.30;;;;;;4878615;29;20954;-79
2022/06/16 13:27:39;;;;;;;4.70;2.60;;;26.00;65.80;;;;;;4880797;29;20438;-79
2022/06/16 13:30:05;;;;;;;5.40;2.43;;;25.90;64.30;;;;;;4880692;29;20448;-79
2022/06/16 13:32:39;;;;;;;4.57;2.00;;;25.80;65.10;;;;;;4880533;29;20221;-79
2022/06/16 13:35:14;;;;;;;4.67;2.20;;;25.90;68.70;;;;;;4880652;29;20184;-79
2022/06/16 13:37:42;;;;;;;3.53;2.50;;;25.90;64.30;;;;;;4864012;29;20949;-79
2022/06/16 13:40:08;;;;;;;5.23;2.00;;;25.70;61.60;;;;;;4879566;29;20484;-79
2022/06/16 13:42:51;;;;;;;3.23;2.20;;;26.00;63.90;;;;;;4880583;29;20418;-83
2022/06/16 13:45:29;;;;;;;4.60;2.90;;;26.10;63.90;;;;;;4879839;29;20649;-78
2022/06/16 13:48:14;;;;;;;8.47;4.00;;;26.10;66.60;;;;;;4886061;29;20477;-80
2022/06/16 13:50:52;;;;;;;3.10;2.17;;;26.20;68.50;;;;;;4886972;29;20441;-79
2022/06/16 13:53:41;;;;;;;3.87;2.43;;;26.10;66.10;;;;;;4899673;29;20444;-81
2022/06/16 13:56:28;;;;;;;2.73;2.40;;;26.30;65.20;;;;;;4912485;29;20443;-82
2022/06/16 13:58:54;;;;;;;2.20;2.00;;;26.40;63.20;;;;;;4874498;29;20472;-74
2022/06/16 14:01:23;;;;;;;3.43;2.00;;;26.40;64.90;;;;;;4897694;29;20970;-75
2022/06/16 14:03:58;;;;;;;3.37;2.30;;;26.50;66.30;;;;;;4897832;29;20265;-76
2022/06/16 14:06:32;;;;;;;3.40;2.20;;;26.50;66.10;;;;;;4897635;29;20924;-78
2022/06/16 14:09:19;;;;;;;2.93;2.30;;;26.70;64.60;;;;;;4903141;29;20432;-78
2022/06/16 14:12:04;;;;;;;4.33;2.63;;;26.50;60.30;;;;;;4902888;29;20864;-77
2022/06/16 14:14:55;;;;;;;2.77;2.00;;;26.50;62.20;;;;;;4904358;29;20509;-78
2022/06/16 14:17:27;;;;;;;4.53;1.93;;;26.50;61.40;;;;;;4906525;29;20460;-79
2022/06/16 14:19:54;;;;;;;3.03;2.50;;;26.60;64.20;;;;;;4906026;29;20480;-79
2022/06/16 14:22:21;;;;;;;3.47;2.37;;;26.60;62.30;;;;;;4901274;29;20463;-79
2022/06/16 14:25:23;;;;;;;13.60;9.50;;;26.50;60.00;;;;;;4910535;29;20444;-80
2022/06/16 14:27:55;;;;;;;61.30;53.80;;;26.60;61.10;;;;;;4863958;29;20439;-79
2022/06/16 14:30:46;;;;;;;201.97;180.00;;;26.40;60.80;;;;;;4906284;29;20428;-78
2022/06/16 14:33:23;;;;;;;1328.73;999.90;;;26.10;59.60;;;;;;4899943;29;20479;-81
2022/06/16 14:35:53;;;;;;;767.73;687.40;;;26.30;66.70;;;;;;4903727;29;20511;-80
2022/06/16 14:38:27;;;;;;;691.07;623.03;;;27.00;66.70;;;;;;4905902;29;20569;-79
2022/06/16 14:41:03;;;;;;;127.07;115.53;;;27.50;63.80;;;;;;4907382;29;20978;-79
2022/06/16 14:43:35;;;;;;;49.87;46.27;;;27.80;58.20;;;;;;4916227;29;20789;-79
2022/06/16 14:46:26;;;;;;;9.50;8.73;;;27.30;58.40;;;;;;4915698;29;20951;-76
2022/06/16 14:48:59;;;;;;;6.50;5.23;;;26.70;57.70;;;;;;4915817;29;20459;-76
2022/06/16 14:51:31;;;;;;;300.07;274.67;;;26.50;57.10;;;;;;4915664;29;20450;-78
2022/06/16 14:54:06;;;;;;;53.27;38.43;;;26.90;63.00;;;;;;4916384;29;20423;-83
2022/06/16 14:56:40;;;;;;;4.23;2.70;;;27.30;59.40;;;;;;4916056;29;20415;-81
2022/06/16 14:59:14;;;;;;;3.00;2.63;;;27.10;57.60;;;;;;4916211;29;20471;-81
2022/06/16 15:01:43;;;;;;;3.50;2.97;;;26.70;58.30;;;;;;4917277;29;20451;-80
2022/06/16 15:04:11;;;;;;;5.10;4.27;;;26.60;58.70;;;;;;4915923;29;20844;-81
2022/06/16 15:06:45;;;;;;;6.47;2.43;;;26.70;60.30;;;;;;4916169;29;20487;-84
2022/06/16 15:09:16;;;;;;;3.40;2.37;;;26.80;60.00;;;;;;4915941;29;20431;-81
2022/06/16 15:11:43;;;;;;;6.30;2.80;;;26.90;59.50;;;;;;4916158;29;20428;-83
2022/06/16 15:14:12;;;;;;;7.43;4.10;;;26.90;59.20;;;;;;4896307;29;20444;-77
2022/06/16 15:19:30;;;;;;;5.33;4.77;;;26.80;57.30;;;;;;4914374;29;20531;-82
2022/06/16 15:21:57;;;;;;;3.20;2.40;;;26.90;59.50;;;;;;4904297;29;20424;-82
2022/06/16 15:24:51;;;;;;;3.30;2.70;;;26.70;58.40;;;;;;4897030;29;20496;-82
2022/06/16 15:27:29;;;;;;;3.53;2.67;;;26.50;58.50;;;;;;4897087;29;21011;-83
2022/06/16 15:29:56;;;;;;;5.43;3.30;;;26.60;58.60;;;;;;4898552;29;20432;-83
2022/06/16 15:38:07;;;;;;;3.90;2.50;;;26.70;56.40;;;;;;4904093;29;20463;-85
2022/06/16 15:40:34;;;;;;;3.03;2.70;;;26.60;58.00;;;;;;4895121;29;20480;-86
2022/06/16 15:43:00;;;;;;;3.10;2.43;;;26.40;58.40;;;;;;4896483;29;20432;-85
2022/06/16 15:45:26;;;;;;;5.30;2.70;;;26.20;56.90;;;;;;4898389;29;20459;-82
2022/06/16 15:47:52;;;;;;;3.00;2.00;;;26.10;58.50;;;;;;4879884;29;20467;-82
2022/06/16 15:50:21;;;;;;;4.70;2.87;;;25.80;58.70;;;;;;4896706;29;20770;-87
2022/06/16 15:52:52;;;;;;;2.80;2.40;;;25.80;59.90;;;;;;4897496;29;20871;-86
2022/06/16 15:55:24;;;;;;;4.20;2.47;;;25.80;58.70;;;;;;4896541;29;20797;-84
2022/06/16 15:57:51;;;;;;;7.07;3.87;;;25.60;58.00;;;;;;4901734;29;20424;-86
2022/06/16 16:00:23;;;;;;;12.40;4.90;;;25.70;60.40;;;;;;4912301;29;20490;-79
2022/06/16 16:02:50;;;;;;;5.53;3.23;;;25.80;62.40;;;;;;4916625;29;20463;-80
2022/06/16 16:05:19;;;;;;;5.40;3.50;;;25.90;60.00;;;;;;4918208;29;20780;-83
2022/06/16 16:07:46;;;;;;;5.80;2.60;;;25.90;59.50;;;;;;4916922;29;20442;-84
2022/06/16 16:10:16;;;;;;;4.40;2.53;;;26.00;60.00;;;;;;4918459;29;20195;-79
2022/06/16 16:12:56;;;;;;;2.87;2.60;;;26.00;58.70;;;;;;4915625;29;20432;-79
2022/06/16 16:15:21;;;;;;;2.80;2.60;;;26.10;58.90;;;;;;4889717;29;20516;-81
2022/06/16 16:17:47;;;;;;;3.90;2.57;;;26.00;58.30;;;;;;4891944;29;20535;-79
2022/06/16 16:20:27;;;;;;;2.27;1.87;;;25.90;57.50;;;;;;4909655;29;20239;-83
2022/06/16 16:23:20;;;;;;;6.43;2.27;;;25.80;58.70;;;;;;4910227;29;20179;-78
2022/06/16 16:25:55;;;;;;;3.17;2.07;;;25.80;57.50;;;;;;4901031;29;21032;-78
2022/06/16 16:28:25;;;;;;;4.07;1.90;;;25.60;57.00;;;;;;4899670;29;20457;-79
2022/06/16 16:30:53;;;;;;;2.77;2.30;;;25.70;58.50;;;;;;4899786;29;20480;-80
2022/06/16 16:33:31;;;;;;;2.30;2.10;;;25.70;59.20;;;;;;4899713;29;20868;-76
2022/06/16 16:36:01;;;;;;;6.90;2.40;;;25.70;58.40;;;;;;4906960;29;20471;-76
2022/06/16 16:38:35;;;;;;;7.00;2.77;;;25.70;58.20;;;;;;4907985;29;20429;-74
2022/06/16 16:44:27;;;;;;;2.63;2.00;;;25.70;57.40;;;;;;4899287;29;20452;-80